sensor_id;sensor_type;location;lat;lon;timestamp;noise_LAeq;noise_LA_min;noise_LA_max;noise_LA01;noise_LA95
69615;Laerm;56821;52.486;4.680;2023-02-10T00:00:03;35.71;33.47;37.55;;
69615;Laerm;56821;52.486;4.680;2023-02-10T00:00:14;35.52;33.61;37.95;;
69615;Laerm;56821;52.486;4.680;2023-02-10T00:00:24;36.35;33.69;39.53;;
69615;Laerm;56821;52.486;4.680;2023-02-10T00:00:34;35.85;34.10;37.64;;
69615;Laerm;56821;52.486;4.680;2023-02-10T00:00:44;37.67;34.35;39.98;;
69615;Laerm;56821;52.486;4.680;2023-02-10T00:00:55;37.18;33.90;42.77;;
69615;Laerm;56821;52.486;4.680;2023-02-10T00:01:06;37.37;35.17;40.20;;
69615;Laerm;56821;52.486;4.680;2023-02-10T00:01:19;36.06;33.88;38.10;;
69615;Laerm;56821;52.486;4.680;2023-02-10T00:01:30;35.76;33.60;40.82;;
69615;Laerm;56821;52.486;4.680;2023-02-10T00:01:40;35.46;33.07;37.31;;
69615;Laerm;56821;52.486;4.680;2023-02-10T00:01:50;35.14;32.91;36.95;;
69615;Laerm;56821;52.486;4.680;2023-02-10T00:02:01;36.36;34.06;39.38;;
69615;Laerm;56821;52.486;4.680;2023-02-10T00:02:11;39.27;34.63;42.72;;
69615;Laerm;56821;52.486;4.680;2023-02-10T00:02:21;38.08;35.48;41.35;;
69615;Laerm;56821;52.486;4.680;2023-02-10T00:02:32;39.46;36.99;43.02;;
69615;Laerm;56821;52.486;4.680;2023-02-10T00:02:42;38.71;36.06;41.45;;
69615;Laerm;56821;52.486;4.680;2023-02-10T00:02:52;38.31;35.85;41.66;;
69615;Laerm;56821;52.486;4.680;2023-02-10T00:03:02;41.12;37.39;44.27;;
69615;Laerm;56821;52.486;4.680;2023-02-10T00:03:12;39.28;36.15;43.93;;
69615;Laerm;56821;52.486;4.680;2023-02-10T00:03:23;39.05;35.67;43.52;;
69615;Laerm;56821;52.486;4.680;2023-02-10T00:03:33;37.89;35.83;39.69;;
69615;Laerm;56821;52.486;4.680;2023-02-10T00:03:43;37.92;35.07;40.53;;
69615;Laerm;56821;52.486;4.680;2023-02-10T00:03:53;40.81;38.03;42.82;;
69615;Laerm;56821;52.486;4.680;2023-02-10T00:04:04;36.03;33.99;39.34;;
69615;Laerm;56821;52.486;4.680;2023-02-10T00:04:14;36.73;34.45;38.43;;
69615;Laerm;56821;52.486;4.680;2023-02-10T00:04:25;36.49;34.74;38.49;;
69615;Laerm;56821;52.486;4.680;2023-02-10T00:04:35;36.99;34.16;39.24;;
69615;Laerm;56821;52.486;4.680;2023-02-10T00:04:45;36.52;33.90;40.33;;
69615;Laerm;56821;52.486;4.680;2023-02-10T00:04:55;34.93;32.49;37.00;;
69615;Laerm;56821;52.486;4.680;2023-02-10T00:05:07;35.92;31.97;43.05;;
69615;Laerm;56821;52.486;4.680;2023-02-10T00:05:17;38.53;33.07;46.71;;
69615;Laerm;56821;52.486;4.680;2023-02-10T00:05:27;35.42;32.34;43.36;;
69615;Laerm;56821;52.486;4.680;2023-02-10T00:05:38;34.68;31.83;43.09;;
69615;Laerm;56821;52.486;4.680;2023-02-10T00:05:48;34.27;32.43;36.90;;
69615;Laerm;56821;52.486;4.680;2023-02-10T00:05:58;34.76;32.55;37.63;;
69615;Laerm;56821;52.486;4.680;2023-02-10T00:06:09;34.85;32.37;36.59;;
69615;Laerm;56821;52.486;4.680;2023-02-10T00:06:20;35.28;32.40;40.89;;
69615;Laerm;56821;52.486;4.680;2023-02-10T00:06:32;34.94;32.70;37.01;;
69615;Laerm;56821;52.486;4.680;2023-02-10T00:06:42;35.49;33.55;37.70;;
69615;Laerm;56821;52.486;4.680;2023-02-10T00:06:52;37.39;34.65;39.79;;
69615;Laerm;56821;52.486;4.680;2023-02-10T00:07:03;36.98;34.74;40.15;;
69615;Laerm;56821;52.486;4.680;2023-02-10T00:07:13;42.17;38.27;49.63;;
69615;Laerm;56821;52.486;4.680;2023-02-10T00:07:23;39.83;37.23;45.15;;
69615;Laerm;56821;52.486;4.680;2023-02-10T00:07:33;39.30;37.22;42.41;;
69615;Laerm;56821;52.486;4.680;2023-02-10T00:07:44;39.41;35.45;47.59;;
69615;Laerm;56821;52.486;4.680;2023-02-10T00:07:54;39.26;36.69;41.87;;
69615;Laerm;56821;52.486;4.680;2023-02-10T00:08:04;37.87;35.66;43.22;;
69615;Laerm;56821;52.486;4.680;2023-02-10T00:08:14;39.14;35.34;42.52;;
69615;Laerm;56821;52.486;4.680;2023-02-10T00:08:25;36.88;34.53;39.76;;
69615;Laerm;56821;52.486;4.680;2023-02-10T00:08:35;35.91;33.83;37.88;;
69615;Laerm;56821;52.486;4.680;2023-02-10T00:08:46;36.27;33.82;38.64;;
69615;Laerm;56821;52.486;4.680;2023-02-10T00:08:58;37.18;34.59;39.74;;
69615;Laerm;56821;52.486;4.680;2023-02-10T00:09:09;35.49;33.09;38.42;;
69615;Laerm;56821;52.486;4.680;2023-02-10T00:09:20;36.89;34.34;39.44;;
69615;Laerm;56821;52.486;4.680;2023-02-10T00:09:30;36.51;34.67;38.03;;
69615;Laerm;56821;52.486;4.680;2023-02-10T00:09:40;37.66;35.09;40.75;;
69615;Laerm;56821;52.486;4.680;2023-02-10T00:09:51;41.87;37.31;44.61;;
69615;Laerm;56821;52.486;4.680;2023-02-10T00:10:01;42.16;38.13;46.40;;
69615;Laerm;56821;52.486;4.680;2023-02-10T00:10:11;41.66;38.27;45.71;;
69615;Laerm;56821;52.486;4.680;2023-02-10T00:10:21;38.70;35.55;42.17;;
69615;Laerm;56821;52.486;4.680;2023-02-10T00:10:32;37.85;34.74;43.17;;
69615;Laerm;56821;52.486;4.680;2023-02-10T00:10:42;39.22;36.51;42.18;;
69615;Laerm;56821;52.486;4.680;2023-02-10T00:10:56;43.96;40.41;46.80;;
69615;Laerm;56821;52.486;4.680;2023-02-10T00:11:07;43.81;40.28;46.98;;
69615;Laerm;56821;52.486;4.680;2023-02-10T00:11:19;42.29;39.48;45.72;;
69615;Laerm;56821;52.486;4.680;2023-02-10T00:11:50;41.28;35.14;48.21;;
69615;Laerm;56821;52.486;4.680;2023-02-10T00:12:06;36.56;33.46;40.32;;
69615;Laerm;56821;52.486;4.680;2023-02-10T00:12:18;37.10;34.49;40.71;;
69615;Laerm;56821;52.486;4.680;2023-02-10T00:12:28;37.92;35.65;40.76;;
69615;Laerm;56821;52.486;4.680;2023-02-10T00:12:38;39.66;37.05;42.23;;
69615;Laerm;56821;52.486;4.680;2023-02-10T00:12:48;39.44;36.66;43.04;;
69615;Laerm;56821;52.486;4.680;2023-02-10T00:12:59;36.59;33.65;39.42;;
69615;Laerm;56821;52.486;4.680;2023-02-10T00:13:09;35.41;33.15;37.59;;
69615;Laerm;56821;52.486;4.680;2023-02-10T00:13:19;35.23;32.89;37.50;;
69615;Laerm;56821;52.486;4.680;2023-02-10T00:13:30;34.57;33.02;36.28;;
69615;Laerm;56821;52.486;4.680;2023-02-10T00:13:40;35.29;33.29;37.96;;
69615;Laerm;56821;52.486;4.680;2023-02-10T00:13:50;37.14;34.61;39.38;;
69615;Laerm;56821;52.486;4.680;2023-02-10T00:14:00;37.20;35.63;39.01;;
69615;Laerm;56821;52.486;4.680;2023-02-10T00:14:11;37.20;34.40;39.80;;
69615;Laerm;56821;52.486;4.680;2023-02-10T00:14:22;36.91;34.54;40.22;;
69615;Laerm;56821;52.486;4.680;2023-02-10T00:14:32;35.84;33.48;39.01;;
69615;Laerm;56821;52.486;4.680;2023-02-10T00:14:42;39.03;36.12;41.73;;
69615;Laerm;56821;52.486;4.680;2023-02-10T00:14:52;40.01;36.50;43.23;;
69615;Laerm;56821;52.486;4.680;2023-02-10T00:15:03;37.22;35.04;39.42;;
69615;Laerm;56821;52.486;4.680;2023-02-10T00:15:14;37.02;34.26;39.07;;
69615;Laerm;56821;52.486;4.680;2023-02-10T00:15:24;37.36;35.35;39.74;;
69615;Laerm;56821;52.486;4.680;2023-02-10T00:15:36;37.10;34.09;39.23;;
69615;Laerm;56821;52.486;4.680;2023-02-10T00:15:46;35.86;33.22;38.20;;
69615;Laerm;56821;52.486;4.680;2023-02-10T00:15:57;35.79;33.74;37.62;;
69615;Laerm;56821;52.486;4.680;2023-02-10T00:16:09;35.76;33.08;38.35;;
69615;Laerm;56821;52.486;4.680;2023-02-10T00:16:19;35.77;33.85;38.47;;
69615;Laerm;56821;52.486;4.680;2023-02-10T00:16:30;37.99;33.93;41.62;;
69615;Laerm;56821;52.486;4.680;2023-02-10T00:16:40;40.85;38.02;43.37;;
69615;Laerm;56821;52.486;4.680;2023-02-10T00:16:51;40.08;36.28;43.06;;
69615;Laerm;56821;52.486;4.680;2023-02-10T00:17:02;40.30;37.44;44.81;;
69615;Laerm;56821;52.486;4.680;2023-02-10T00:17:12;37.78;34.50;40.63;;
69615;Laerm;56821;52.486;4.680;2023-02-10T00:17:23;36.67;34.46;39.79;;
69615;Laerm;56821;52.486;4.680;2023-02-10T00:17:33;37.07;35.01;41.19;;
69615;Laerm;56821;52.486;4.680;2023-02-10T00:17:43;36.24;33.91;38.23;;
69615;Laerm;56821;52.486;4.680;2023-02-10T00:17:53;36.50;34.09;38.57;;
69615;Laerm;56821;52.486;4.680;2023-02-10T00:18:04;36.55;34.46;38.54;;
69615;Laerm;56821;52.486;4.680;2023-02-10T00:18:14;37.23;35.20;39.16;;
69615;Laerm;56821;52.486;4.680;2023-02-10T00:18:24;37.42;34.91;40.12;;
69615;Laerm;56821;52.486;4.680;2023-02-10T00:18:35;37.04;35.07;38.82;;
69615;Laerm;56821;52.486;4.680;2023-02-10T00:18:45;36.89;34.83;39.29;;
69615;Laerm;56821;52.486;4.680;2023-02-10T00:18:55;37.14;34.17;39.13;;
69615;Laerm;56821;52.486;4.680;2023-02-10T00:19:05;37.59;35.67;39.61;;
69615;Laerm;56821;52.486;4.680;2023-02-10T00:19:16;39.05;35.48;42.62;;
69615;Laerm;56821;52.486;4.680;2023-02-10T00:19:26;38.90;36.11;42.53;;
69615;Laerm;56821;52.486;4.680;2023-02-10T00:19:37;38.23;35.75;44.20;;
69615;Laerm;56821;52.486;4.680;2023-02-10T00:19:48;37.97;35.13;42.60;;
69615;Laerm;56821;52.486;4.680;2023-02-10T00:19:58;41.60;38.12;44.46;;
69615;Laerm;56821;52.486;4.680;2023-02-10T00:20:09;38.40;35.98;41.02;;
69615;Laerm;56821;52.486;4.680;2023-02-10T00:20:19;39.55;37.44;42.74;;
69615;Laerm;56821;52.486;4.680;2023-02-10T00:20:29;40.00;37.59;42.32;;
69615;Laerm;56821;52.486;4.680;2023-02-10T00:20:40;41.28;38.72;44.41;;
69615;Laerm;56821;52.486;4.680;2023-02-10T00:20:50;41.08;39.13;43.23;;
69615;Laerm;56821;52.486;4.680;2023-02-10T00:21:07;40.60;38.40;43.67;;
69615;Laerm;56821;52.486;4.680;2023-02-10T00:21:18;39.71;36.97;44.45;;
69615;Laerm;56821;52.486;4.680;2023-02-10T00:21:28;40.48;37.32;43.16;;
69615;Laerm;56821;52.486;4.680;2023-02-10T00:21:38;39.48;37.87;41.35;;
69615;Laerm;56821;52.486;4.680;2023-02-10T00:21:48;39.75;37.11;43.63;;
69615;Laerm;56821;52.486;4.680;2023-02-10T00:21:59;38.38;35.70;41.03;;
69615;Laerm;56821;52.486;4.680;2023-02-10T00:22:10;38.06;35.08;43.88;;
69615;Laerm;56821;52.486;4.680;2023-02-10T00:22:20;39.36;35.41;45.17;;
69615;Laerm;56821;52.486;4.680;2023-02-10T00:22:30;38.60;35.90;44.06;;
69615;Laerm;56821;52.486;4.680;2023-02-10T00:22:40;39.47;35.97;44.34;;
69615;Laerm;56821;52.486;4.680;2023-02-10T00:22:50;42.24;39.14;45.14;;
69615;Laerm;56821;52.486;4.680;2023-02-10T00:23:00;39.22;36.53;41.57;;
69615;Laerm;56821;52.486;4.680;2023-02-10T00:23:11;37.37;34.71;39.40;;
69615;Laerm;56821;52.486;4.680;2023-02-10T00:23:21;39.16;35.24;42.19;;
69615;Laerm;56821;52.486;4.680;2023-02-10T00:23:31;41.83;37.95;44.46;;
69615;Laerm;56821;52.486;4.680;2023-02-10T00:23:42;41.57;38.37;45.02;;
69615;Laerm;56821;52.486;4.680;2023-02-10T00:23:52;39.93;36.82;42.76;;
69615;Laerm;56821;52.486;4.680;2023-02-10T00:24:03;38.40;35.95;40.47;;
69615;Laerm;56821;52.486;4.680;2023-02-10T00:24:13;36.89;34.98;39.97;;
69615;Laerm;56821;52.486;4.680;2023-02-10T00:24:23;37.03;34.15;39.31;;
69615;Laerm;56821;52.486;4.680;2023-02-10T00:24:34;37.61;35.41;39.87;;
69615;Laerm;56821;52.486;4.680;2023-02-10T00:24:44;38.09;35.59;40.15;;
69615;Laerm;56821;52.486;4.680;2023-02-10T00:24:54;38.01;35.94;39.92;;
69615;Laerm;56821;52.486;4.680;2023-02-10T00:25:04;38.41;35.95;40.80;;
69615;Laerm;56821;52.486;4.680;2023-02-10T00:25:15;37.99;35.53;40.89;;
69615;Laerm;56821;52.486;4.680;2023-02-10T00:25:25;38.82;36.60;40.87;;
69615;Laerm;56821;52.486;4.680;2023-02-10T00:25:36;39.19;36.85;41.22;;
69615;Laerm;56821;52.486;4.680;2023-02-10T00:25:46;42.01;39.28;48.24;;
69615;Laerm;56821;52.486;4.680;2023-02-10T00:25:56;41.09;37.52;44.32;;
69615;Laerm;56821;52.486;4.680;2023-02-10T00:26:08;41.86;38.58;44.71;;
69615;Laerm;56821;52.486;4.680;2023-02-10T00:26:18;42.84;39.40;44.85;;
69615;Laerm;56821;52.486;4.680;2023-02-10T00:26:29;40.68;38.12;43.88;;
69615;Laerm;56821;52.486;4.680;2023-02-10T00:26:39;39.27;36.92;42.37;;
69615;Laerm;56821;52.486;4.680;2023-02-10T00:26:49;39.23;36.07;41.61;;
69615;Laerm;56821;52.486;4.680;2023-02-10T00:27:00;38.36;35.89;40.55;;
69615;Laerm;56821;52.486;4.680;2023-02-10T00:27:10;38.81;35.81;43.03;;
69615;Laerm;56821;52.486;4.680;2023-02-10T00:27:20;36.80;34.67;39.30;;
69615;Laerm;56821;52.486;4.680;2023-02-10T00:27:34;37.02;34.65;40.64;;
69615;Laerm;56821;52.486;4.680;2023-02-10T00:27:44;39.88;35.80;44.01;;
69615;Laerm;56821;52.486;4.680;2023-02-10T00:27:54;40.18;36.26;44.37;;
69615;Laerm;56821;52.486;4.680;2023-02-10T00:28:04;39.20;36.27;42.14;;
69615;Laerm;56821;52.486;4.680;2023-02-10T00:28:14;38.71;35.44;43.90;;
69615;Laerm;56821;52.486;4.680;2023-02-10T00:28:24;41.21;37.33;46.09;;
69615;Laerm;56821;52.486;4.680;2023-02-10T00:28:35;42.00;38.52;44.63;;
69615;Laerm;56821;52.486;4.680;2023-02-10T00:28:45;41.69;39.02;44.75;;
69615;Laerm;56821;52.486;4.680;2023-02-10T00:28:55;42.44;38.03;46.09;;
69615;Laerm;56821;52.486;4.680;2023-02-10T00:29:06;38.39;35.10;41.08;;
69615;Laerm;56821;52.486;4.680;2023-02-10T00:29:16;37.54;35.96;39.03;;
69615;Laerm;56821;52.486;4.680;2023-02-10T00:29:26;38.57;35.71;41.06;;
69615;Laerm;56821;52.486;4.680;2023-02-10T00:29:37;39.69;36.23;43.49;;
69615;Laerm;56821;52.486;4.680;2023-02-10T00:29:47;40.03;36.72;43.73;;
69615;Laerm;56821;52.486;4.680;2023-02-10T00:29:59;39.81;36.97;44.36;;
69615;Laerm;56821;52.486;4.680;2023-02-10T00:30:10;39.69;36.49;42.55;;
69615;Laerm;56821;52.486;4.680;2023-02-10T00:30:20;38.64;35.61;42.21;;
69615;Laerm;56821;52.486;4.680;2023-02-10T00:30:30;36.83;34.72;38.92;;
69615;Laerm;56821;52.486;4.680;2023-02-10T00:30:41;36.78;34.19;38.79;;
69615;Laerm;56821;52.486;4.680;2023-02-10T00:30:51;36.07;33.59;38.33;;
69615;Laerm;56821;52.486;4.680;2023-02-10T00:31:04;36.03;33.77;41.07;;
69615;Laerm;56821;52.486;4.680;2023-02-10T00:31:15;36.15;33.43;42.41;;
69615;Laerm;56821;52.486;4.680;2023-02-10T00:31:28;35.80;32.60;41.75;;
69615;Laerm;56821;52.486;4.680;2023-02-10T00:31:38;36.05;34.15;37.90;;
69615;Laerm;56821;52.486;4.680;2023-02-10T00:31:49;36.94;34.79;39.47;;
69615;Laerm;56821;52.486;4.680;2023-02-10T00:31:59;38.03;35.58;40.86;;
69615;Laerm;56821;52.486;4.680;2023-02-10T00:32:09;38.08;36.23;40.25;;
69615;Laerm;56821;52.486;4.680;2023-02-10T00:32:21;37.97;35.24;40.54;;
69615;Laerm;56821;52.486;4.680;2023-02-10T00:32:31;38.96;36.31;42.09;;
69615;Laerm;56821;52.486;4.680;2023-02-10T00:32:41;39.31;36.62;43.18;;
69615;Laerm;56821;52.486;4.680;2023-02-10T00:32:51;38.03;35.51;40.04;;
69615;Laerm;56821;52.486;4.680;2023-02-10T00:33:01;36.12;34.15;38.20;;
69615;Laerm;56821;52.486;4.680;2023-02-10T00:33:12;36.46;34.09;40.89;;
69615;Laerm;56821;52.486;4.680;2023-02-10T00:33:22;36.61;34.49;38.98;;
69615;Laerm;56821;52.486;4.680;2023-02-10T00:33:32;36.78;34.04;39.41;;
69615;Laerm;56821;52.486;4.680;2023-02-10T00:33:42;36.06;33.86;38.50;;
69615;Laerm;56821;52.486;4.680;2023-02-10T00:33:53;37.47;34.70;40.42;;
69615;Laerm;56821;52.486;4.680;2023-02-10T00:34:03;36.49;34.21;38.34;;
69615;Laerm;56821;52.486;4.680;2023-02-10T00:34:14;36.08;34.07;38.18;;
69615;Laerm;56821;52.486;4.680;2023-02-10T00:34:24;36.30;33.79;38.09;;
69615;Laerm;56821;52.486;4.680;2023-02-10T00:34:35;36.88;34.56;39.38;;
69615;Laerm;56821;52.486;4.680;2023-02-10T00:34:46;37.66;35.58;39.98;;
69615;Laerm;56821;52.486;4.680;2023-02-10T00:34:57;37.53;35.18;40.20;;
69615;Laerm;56821;52.486;4.680;2023-02-10T00:35:07;36.44;34.22;39.35;;
69615;Laerm;56821;52.486;4.680;2023-02-10T00:35:17;36.98;35.09;39.04;;
69615;Laerm;56821;52.486;4.680;2023-02-10T00:35:28;38.75;36.14;40.99;;
69615;Laerm;56821;52.486;4.680;2023-02-10T00:35:38;41.09;38.84;43.91;;
69615;Laerm;56821;52.486;4.680;2023-02-10T00:35:48;39.51;36.99;42.48;;
69615;Laerm;56821;52.486;4.680;2023-02-10T00:35:58;38.02;35.17;40.87;;
69615;Laerm;56821;52.486;4.680;2023-02-10T00:36:09;38.59;35.57;41.02;;
69615;Laerm;56821;52.486;4.680;2023-02-10T00:36:20;40.61;37.78;43.39;;
69615;Laerm;56821;52.486;4.680;2023-02-10T00:36:32;40.44;37.39;43.93;;
69615;Laerm;56821;52.486;4.680;2023-02-10T00:36:42;39.54;36.90;43.10;;
69615;Laerm;56821;52.486;4.680;2023-02-10T00:36:53;39.92;36.75;42.82;;
69615;Laerm;56821;52.486;4.680;2023-02-10T00:37:03;38.17;35.61;41.49;;
69615;Laerm;56821;52.486;4.680;2023-02-10T00:37:13;37.67;34.89;43.01;;
69615;Laerm;56821;52.486;4.680;2023-02-10T00:37:23;38.93;36.18;42.75;;
69615;Laerm;56821;52.486;4.680;2023-02-10T00:37:34;38.97;36.11;42.05;;
69615;Laerm;56821;52.486;4.680;2023-02-10T00:37:44;37.72;35.43;40.01;;
69615;Laerm;56821;52.486;4.680;2023-02-10T00:37:54;36.46;34.05;38.08;;
69615;Laerm;56821;52.486;4.680;2023-02-10T00:38:05;39.15;35.80;41.80;;
69615;Laerm;56821;52.486;4.680;2023-02-10T00:38:15;38.45;35.59;41.62;;
69615;Laerm;56821;52.486;4.680;2023-02-10T00:38:25;38.80;36.77;41.48;;
69615;Laerm;56821;52.486;4.680;2023-02-10T00:38:35;38.76;36.91;41.24;;
69615;Laerm;56821;52.486;4.680;2023-02-10T00:38:45;40.51;37.43;47.25;;
69615;Laerm;56821;52.486;4.680;2023-02-10T00:38:56;41.72;37.21;46.76;;
69615;Laerm;56821;52.486;4.680;2023-02-10T00:39:06;39.55;36.52;44.34;;
69615;Laerm;56821;52.486;4.680;2023-02-10T00:39:17;37.43;35.16;40.49;;
69615;Laerm;56821;52.486;4.680;2023-02-10T00:39:27;37.14;34.82;39.49;;
69615;Laerm;56821;52.486;4.680;2023-02-10T00:39:37;36.87;34.78;39.32;;
69615;Laerm;56821;52.486;4.680;2023-02-10T00:39:47;36.88;33.97;40.62;;
69615;Laerm;56821;52.486;4.680;2023-02-10T00:39:58;36.45;34.11;39.85;;
69615;Laerm;56821;52.486;4.680;2023-02-10T00:40:08;37.44;34.33;40.79;;
69615;Laerm;56821;52.486;4.680;2023-02-10T00:40:18;40.59;37.48;43.50;;
69615;Laerm;56821;52.486;4.680;2023-02-10T00:40:29;39.65;36.55;41.83;;
69615;Laerm;56821;52.486;4.680;2023-02-10T00:40:39;38.79;36.17;42.99;;
69615;Laerm;56821;52.486;4.680;2023-02-10T00:40:49;40.23;37.22;44.63;;
69615;Laerm;56821;52.486;4.680;2023-02-10T00:41:06;38.97;35.75;43.68;;
69615;Laerm;56821;52.486;4.680;2023-02-10T00:41:17;37.44;34.82;40.23;;
69615;Laerm;56821;52.486;4.680;2023-02-10T00:41:28;37.36;34.59;44.22;;
69615;Laerm;56821;52.486;4.680;2023-02-10T00:41:38;37.18;34.91;39.80;;
69615;Laerm;56821;52.486;4.680;2023-02-10T00:41:49;36.96;34.54;39.03;;
69615;Laerm;56821;52.486;4.680;2023-02-10T00:41:59;37.49;35.23;41.34;;
69615;Laerm;56821;52.486;4.680;2023-02-10T00:42:09;40.20;37.26;43.17;;
69615;Laerm;56821;52.486;4.680;2023-02-10T00:42:19;41.52;37.78;44.55;;
69615;Laerm;56821;52.486;4.680;2023-02-10T00:42:29;40.27;37.13;43.50;;
69615;Laerm;56821;52.486;4.680;2023-02-10T00:42:39;38.94;35.84;43.89;;
69615;Laerm;56821;52.486;4.680;2023-02-10T00:42:50;37.98;35.47;39.97;;
69615;Laerm;56821;52.486;4.680;2023-02-10T00:43:00;37.79;34.70;41.30;;
69615;Laerm;56821;52.486;4.680;2023-02-10T00:43:10;37.16;35.02;39.67;;
69615;Laerm;56821;52.486;4.680;2023-02-10T00:43:20;36.99;34.55;39.12;;
69615;Laerm;56821;52.486;4.680;2023-02-10T00:43:31;37.53;34.67;40.23;;
69615;Laerm;56821;52.486;4.680;2023-02-10T00:43:42;36.61;34.12;39.45;;
69615;Laerm;56821;52.486;4.680;2023-02-10T00:43:53;37.17;34.56;39.43;;
69615;Laerm;56821;52.486;4.680;2023-02-10T00:44:03;36.87;33.77;40.10;;
69615;Laerm;56821;52.486;4.680;2023-02-10T00:44:14;36.33;33.97;40.55;;
69615;Laerm;56821;52.486;4.680;2023-02-10T00:44:24;37.55;35.08;40.68;;
69615;Laerm;56821;52.486;4.680;2023-02-10T00:44:34;37.63;34.60;41.00;;
69615;Laerm;56821;52.486;4.680;2023-02-10T00:44:44;37.76;34.53;41.75;;
69615;Laerm;56821;52.486;4.680;2023-02-10T00:44:55;36.24;34.50;38.17;;
69615;Laerm;56821;52.486;4.680;2023-02-10T00:45:05;36.49;34.06;38.26;;
69615;Laerm;56821;52.486;4.680;2023-02-10T00:45:15;37.25;35.15;38.73;;
69615;Laerm;56821;52.486;4.680;2023-02-10T00:45:26;35.98;34.07;37.46;;
69615;Laerm;56821;52.486;4.680;2023-02-10T00:45:36;37.23;34.92;40.63;;
69615;Laerm;56821;52.486;4.680;2023-02-10T00:45:46;39.84;37.19;42.86;;
69615;Laerm;56821;52.486;4.680;2023-02-10T00:45:56;38.37;35.57;41.56;;
69615;Laerm;56821;52.486;4.680;2023-02-10T00:46:06;36.94;34.74;39.56;;
69615;Laerm;56821;52.486;4.680;2023-02-10T00:46:17;36.72;34.56;41.40;;
69615;Laerm;56821;52.486;4.680;2023-02-10T00:46:28;36.07;34.03;38.01;;
69615;Laerm;56821;52.486;4.680;2023-02-10T00:46:38;36.40;33.78;38.56;;
69615;Laerm;56821;52.486;4.680;2023-02-10T00:46:48;37.13;34.99;38.80;;
69615;Laerm;56821;52.486;4.680;2023-02-10T00:46:59;37.40;34.77;39.58;;
69615;Laerm;56821;52.486;4.680;2023-02-10T00:47:09;37.11;34.47;39.55;;
69615;Laerm;56821;52.486;4.680;2023-02-10T00:47:19;38.52;35.29;41.38;;
69615;Laerm;56821;52.486;4.680;2023-02-10T00:47:29;38.51;35.66;41.56;;
69615;Laerm;56821;52.486;4.680;2023-02-10T00:47:40;39.65;36.09;45.47;;
69615;Laerm;56821;52.486;4.680;2023-02-10T00:47:50;39.76;36.54;43.44;;
69615;Laerm;56821;52.486;4.680;2023-02-10T00:48:01;40.38;36.38;44.89;;
69615;Laerm;56821;52.486;4.680;2023-02-10T00:48:11;40.35;37.61;44.70;;
69615;Laerm;56821;52.486;4.680;2023-02-10T00:48:21;43.77;36.51;50.03;;
69615;Laerm;56821;52.486;4.680;2023-02-10T00:48:31;42.38;37.10;48.89;;
69615;Laerm;56821;52.486;4.680;2023-02-10T00:48:42;37.09;33.77;44.50;;
69615;Laerm;56821;52.486;4.680;2023-02-10T00:48:53;36.15;33.45;39.41;;
69615;Laerm;56821;52.486;4.680;2023-02-10T00:49:03;36.50;33.82;39.08;;
69615;Laerm;56821;52.486;4.680;2023-02-10T00:49:13;36.26;33.89;38.99;;
69615;Laerm;56821;52.486;4.680;2023-02-10T00:49:23;35.11;32.61;40.68;;
69615;Laerm;56821;52.486;4.680;2023-02-10T00:49:34;35.85;32.64;38.50;;
69615;Laerm;56821;52.486;4.680;2023-02-10T00:49:44;35.74;33.43;38.59;;
69615;Laerm;56821;52.486;4.680;2023-02-10T00:49:54;36.13;33.47;39.65;;
69615;Laerm;56821;52.486;4.680;2023-02-10T00:50:04;38.01;34.33;42.51;;
69615;Laerm;56821;52.486;4.680;2023-02-10T00:50:15;36.95;34.27;38.77;;
69615;Laerm;56821;52.486;4.680;2023-02-10T00:50:25;36.06;33.29;38.32;;
69615;Laerm;56821;52.486;4.680;2023-02-10T00:50:35;35.69;33.65;38.02;;
69615;Laerm;56821;52.486;4.680;2023-02-10T00:50:45;37.54;35.14;42.25;;
69615;Laerm;56821;52.486;4.680;2023-02-10T00:50:55;38.44;35.32;42.63;;
69615;Laerm;56821;52.486;4.680;2023-02-10T00:51:06;41.50;38.63;47.85;;
69615;Laerm;56821;52.486;4.680;2023-02-10T00:51:17;41.68;38.47;44.97;;
69615;Laerm;56821;52.486;4.680;2023-02-10T00:51:27;40.80;36.55;50.94;;
69615;Laerm;56821;52.486;4.680;2023-02-10T00:51:37;39.70;36.80;42.64;;
69615;Laerm;56821;52.486;4.680;2023-02-10T00:51:48;39.77;37.35;44.76;;
69615;Laerm;56821;52.486;4.680;2023-02-10T00:51:58;39.86;36.61;43.03;;
69615;Laerm;56821;52.486;4.680;2023-02-10T00:52:08;40.57;38.16;42.96;;
69615;Laerm;56821;52.486;4.680;2023-02-10T00:52:18;41.27;36.82;43.73;;
69615;Laerm;56821;52.486;4.680;2023-02-10T00:52:28;39.87;37.01;42.72;;
69615;Laerm;56821;52.486;4.680;2023-02-10T00:52:39;40.20;37.28;42.97;;
69615;Laerm;56821;52.486;4.680;2023-02-10T00:52:49;40.04;36.78;42.06;;
69615;Laerm;56821;52.486;4.680;2023-02-10T00:52:59;43.03;37.86;48.80;;
69615;Laerm;56821;52.486;4.680;2023-02-10T00:53:09;38.41;35.21;42.51;;
69615;Laerm;56821;52.486;4.680;2023-02-10T00:53:19;37.68;35.33;39.84;;
69615;Laerm;56821;52.486;4.680;2023-02-10T00:53:30;39.64;35.96;42.54;;
69615;Laerm;56821;52.486;4.680;2023-02-10T00:53:40;39.85;36.80;42.51;;
69615;Laerm;56821;52.486;4.680;2023-02-10T00:53:51;38.40;35.95;40.54;;
69615;Laerm;56821;52.486;4.680;2023-02-10T00:54:02;38.89;35.87;42.09;;
69615;Laerm;56821;52.486;4.680;2023-02-10T00:54:13;38.31;35.83;40.57;;
69615;Laerm;56821;52.486;4.680;2023-02-10T00:54:23;37.87;35.55;40.48;;
69615;Laerm;56821;52.486;4.680;2023-02-10T00:54:33;39.07;36.08;41.50;;
69615;Laerm;56821;52.486;4.680;2023-02-10T00:54:43;38.16;35.37;43.00;;
69615;Laerm;56821;52.486;4.680;2023-02-10T00:54:53;38.42;36.51;40.63;;
69615;Laerm;56821;52.486;4.680;2023-02-10T00:55:04;40.48;36.48;45.93;;
69615;Laerm;56821;52.486;4.680;2023-02-10T00:55:14;41.78;38.12;45.36;;
69615;Laerm;56821;52.486;4.680;2023-02-10T00:55:24;41.86;38.76;44.67;;
69615;Laerm;56821;52.486;4.680;2023-02-10T00:55:35;38.50;35.84;40.55;;
69615;Laerm;56821;52.486;4.680;2023-02-10T00:55:45;37.53;34.35;39.63;;
69615;Laerm;56821;52.486;4.680;2023-02-10T00:55:55;37.34;35.22;40.13;;
69615;Laerm;56821;52.486;4.680;2023-02-10T00:56:05;40.00;35.87;47.44;;
69615;Laerm;56821;52.486;4.680;2023-02-10T00:56:16;38.72;35.90;42.59;;
69615;Laerm;56821;52.486;4.680;2023-02-10T00:56:27;36.85;33.76;39.18;;
69615;Laerm;56821;52.486;4.680;2023-02-10T00:56:38;35.24;33.34;37.04;;
69615;Laerm;56821;52.486;4.680;2023-02-10T00:56:48;37.06;33.81;42.19;;
69615;Laerm;56821;52.486;4.680;2023-02-10T00:56:58;37.98;34.34;42.42;;
69615;Laerm;56821;52.486;4.680;2023-02-10T00:57:09;37.63;34.77;40.66;;
69615;Laerm;56821;52.486;4.680;2023-02-10T00:57:19;39.03;36.58;40.97;;
69615;Laerm;56821;52.486;4.680;2023-02-10T00:57:29;39.62;36.87;43.50;;
69615;Laerm;56821;52.486;4.680;2023-02-10T00:57:39;38.72;36.57;40.90;;
69615;Laerm;56821;52.486;4.680;2023-02-10T00:57:50;38.46;35.92;41.32;;
69615;Laerm;56821;52.486;4.680;2023-02-10T00:58:00;41.25;39.24;43.08;;
69615;Laerm;56821;52.486;4.680;2023-02-10T00:58:10;40.62;38.26;43.12;;
69615;Laerm;56821;52.486;4.680;2023-02-10T00:58:20;40.61;37.52;43.07;;
69615;Laerm;56821;52.486;4.680;2023-02-10T00:58:31;38.56;35.44;41.64;;
69615;Laerm;56821;52.486;4.680;2023-02-10T00:58:41;36.54;34.07;38.83;;
69615;Laerm;56821;52.486;4.680;2023-02-10T00:58:51;36.74;34.84;39.05;;
69615;Laerm;56821;52.486;4.680;2023-02-10T00:59:01;36.01;33.69;38.03;;